Wardsboro, VT (05355)

7:57 AM EST on January 26, 2015 (GMT -0500)
Timber Creek | Change Station
CLOSE
Current Station
Personal Weather Station
Location: Dover, VT
Elevation: 2090 ft
Nearby Weather Stations
Active Advisory: Winter Storm Warning

Elev 2090 ft 42.97 °N, 72.89 °W | Updated 8 minutes ago

Partly Cloudy
Partly Cloudy
4.6 °F
Feels Like 5 °F
N
0.0
Wind Variable Wind from ESE

Today
High -- | Low -- °F
--% Chance of Precip.
Yesterday
High -- | Low -- °F
Precip. -- in
7:12 AM 4:55 PM
Waxing Crescent, 43% visible
Pressure 30.08 in
Visibility 10.0 miles
Clouds Scattered Clouds 12000 ft
Windchill 5 °F
Dew Point -5 °F
Humidity 63%
Rainfall 0.00 in
Snow Depth Not available.
UV 0 out of 12
Pollen .10 out of 12
Air Quality Not available.
Flu Activity Not available.
METAR KDDH 261154Z AUTO 02004KT 10SM SCT120 M14/M20 A3003 RMK AO2 SLP185 T11391200 11133 21150 57004

More Conditions Fewer Conditions

Pressure 30.08 in
Visibility 10.0 miles
Clouds Scattered Clouds 12000 ft
Windchill 5 °F
Dew Point -5 °F
Humidity 63%
Rainfall 0.00 in
Snow Depth Not available.
UV 0 out of 12
Pollen .10 out of 12
Air Quality Not available.
Flu Activity Not available.
METAR KDDH 261154Z AUTO 02004KT 10SM SCT120 M14/M20 A3003 RMK AO2 SLP185 T11391200 11133 21150 57004

More Conditions Fewer Conditions

10-Day Weather Forecast

Almanac

Astronomy

Jan. 26, 2015 Rise Set
Actual Time
Civil Twilight
Nautical Twilight
Astronomical Twilight
Moon
Length of Visible Light
Length of Day
Tomorrow will be .
, % of the Moon is Illuminated

Today's Extremes

State Highs State Lows

Community

WunderPhotos

Upload Photos

1,790,175 photos uploaded!

WunderBlogs® & News

Nearby

Air Quality

  Air Quality AQ Index Pollutant
Not available.

Snow Depth

Station Depth Elevation

Earthquake Activity

City Distance Mag. Time & Date
Minimum magnitude displayed is 2.5.

Coastal Water Temperatures

Place Temperature

Nearby Weather Stations